Main page
METAR-TAF:

METAR-TAF

Airports :

Dubai International Airport

Dubai, United Arab Emirates

latitude: 25-15-10N, longitude: 055-21-52E, elevation: 8 m

Current weather observation

The report was made 12 minutes ago, at 21:00 UTC
Wind 6 kt from the South
Temperature 23°C
Humidity 65%
Pressure 1017 hPa
Visibility 10 km or more
Scattered clouds at a height of 4000 ft

METAR: OMDB 212100Z 18006KT 9999 SCT040 23/16 Q1017 NOSIG

Time: 01:12 (21:12 UTC)

Forecast

The report was made 4 hours and 15 minutes ago, at 16:57 UTC
Forecast valid from 21 at 18 UTC to 23 at 00 UTC
Wind 10 kt from the West
Visibility 10 km or more
Scattered clouds at a height of 3500 ft
Becoming
from 21 at 20 UTC to 21 at 22 UTC
Wind 7 kt from the South
Becoming
from 22 at 06 UTC to 22 at 08 UTC
Wind 10 kt from the West/Northwest
Becoming
from 22 at 15 UTC to 22 at 17 UTC
Wind 5 kt from the East/Southeast

TAF: OMDB 211657Z 2118/2300 27010KT 9999 SCT035 BECMG 2120/2122 19007KT BECMG 2206/2208 29010KT BECMG 2215/2217 12005KT

Weather observations and forecasts of more than 4000 airports (METAR and TAF reports).

The available stations are represented by yellow and red dots on the map.

Hover mouse over dot to see the name of the station.

Then click to see weather observations and forecasts.

To change the map : click on the green buttons with a black cross to zoom in, on the green button with a dash to zoom out, or on the green arrows for adjacent maps.


METAR-TAF: